Time;durP1;ratioP1;P1;durP2;ratioP2;P2;SDS_P1;SDS_P2;PMS_P1;PMS_P2;Temp;Humidity;BMP_temperature;BMP_pressure;BME280_temperature;BME280_humidity;BME280_pressure;Samples;Min_cycle;Max_cycle;Signal;HPM_P1;HPM_P2
2022/04/29 00:00:13;;;;;;;25.77;14.23;;;10.50;99.90;;;;;;5044103;28;20469;-75
2022/04/29 00:02:40;;;;;;;28.50;15.00;;;10.50;99.90;;;;;;5045462;28;20570;-75
2022/04/29 00:05:09;;;;;;;24.23;13.97;;;10.40;99.90;;;;;;5040101;28;20455;-75
2022/04/29 00:07:38;;;;;;;29.27;14.30;;;10.40;99.90;;;;;;5035446;28;20453;-75
2022/04/29 00:10:07;;;;;;;30.40;14.23;;;10.40;99.90;;;;;;5049508;28;20574;-75
2022/04/29 00:12:34;;;;;;;22.00;14.07;;;10.40;99.90;;;;;;5048543;28;20448;-75
2022/04/29 00:15:00;;;;;;;25.57;14.77;;;10.40;99.90;;;;;;5043098;28;20456;-75
2022/04/29 00:17:27;;;;;;;29.00;15.03;;;10.30;99.90;;;;;;5056840;28;20826;-75
2022/04/29 00:19:53;;;;;;;23.10;14.17;;;10.30;99.90;;;;;;5052823;28;20484;-75
2022/04/29 00:22:21;;;;;;;25.70;14.00;;;10.30;99.90;;;;;;5048668;28;20894;-75
2022/04/29 00:24:49;;;;;;;24.53;13.57;;;10.30;99.90;;;;;;5043427;28;20991;-75
2022/04/29 00:27:16;;;;;;;25.80;14.50;;;10.30;99.90;;;;;;5045430;28;20449;-75
2022/04/29 00:29:42;;;;;;;32.57;14.37;;;10.20;99.90;;;;;;5050417;28;20559;-75
2022/04/29 00:32:09;;;;;;;25.30;13.63;;;10.20;99.90;;;;;;5044721;28;20449;-75
2022/04/29 00:34:36;;;;;;;22.37;13.90;;;10.20;99.90;;;;;;5045929;28;20456;-76
2022/04/29 00:37:03;;;;;;;26.87;13.00;;;10.20;99.90;;;;;;5042702;28;20478;-75
2022/04/29 00:39:29;;;;;;;26.73;15.17;;;10.20;99.90;;;;;;5040259;28;20841;-76
2022/04/29 00:41:57;;;;;;;25.50;13.17;;;10.20;99.90;;;;;;5048564;28;20460;-75
2022/04/29 00:44:24;;;;;;;22.47;14.70;;;10.20;99.90;;;;;;5048162;28;20451;-76
2022/04/29 00:46:51;;;;;;;29.50;13.97;;;10.20;99.90;;;;;;5049515;28;20460;-75
2022/04/29 00:49:19;;;;;;;30.17;14.43;;;10.10;99.90;;;;;;5047601;28;20454;-75
2022/04/29 00:51:47;;;;;;;25.50;13.40;;;10.10;99.90;;;;;;5056849;28;20448;-75
2022/04/29 00:54:19;;;;;;;22.10;13.17;;;10.10;99.90;;;;;;5040943;28;20503;-76
2022/04/29 00:56:49;;;;;;;24.00;13.67;;;10.10;99.90;;;;;;5047434;28;20456;-75
2022/04/29 00:59:22;;;;;;;23.73;12.73;;;10.10;99.90;;;;;;5044135;28;21560;-75
2022/04/29 01:01:51;;;;;;;24.50;14.30;;;10.00;99.90;;;;;;5050731;28;20451;-75
2022/04/29 01:04:22;;;;;;;23.93;13.87;;;10.00;99.90;;;;;;5040809;28;20485;-75
2022/04/29 01:06:49;;;;;;;23.57;13.57;;;9.90;99.90;;;;;;5050108;28;20498;-75
2022/04/29 01:09:15;;;;;;;32.93;13.50;;;10.00;99.90;;;;;;5047187;28;20444;-75
2022/04/29 01:11:42;;;;;;;24.87;12.80;;;9.90;99.90;;;;;;5049637;28;20533;-75
2022/04/29 01:14:09;;;;;;;21.13;13.80;;;9.90;99.90;;;;;;5053913;28;20444;-75
2022/04/29 01:16:37;;;;;;;21.10;14.37;;;9.90;99.90;;;;;;5053175;28;20448;-75
2022/04/29 01:19:03;;;;;;;22.83;13.40;;;9.90;99.90;;;;;;5043624;28;20449;-76
2022/04/29 01:21:30;;;;;;;25.70;14.07;;;9.90;99.90;;;;;;5048830;28;20471;-75
2022/04/29 01:23:58;;;;;;;30.67;14.77;;;9.80;99.90;;;;;;5049952;28;20542;-75
2022/04/29 01:26:25;;;;;;;21.60;13.80;;;9.80;99.90;;;;;;5055359;28;21266;-75
2022/04/29 01:28:52;;;;;;;22.53;13.47;;;9.80;99.90;;;;;;5048325;28;20462;-75
2022/04/29 01:31:24;;;;;;;27.77;13.10;;;9.80;99.90;;;;;;5045372;28;20471;-75
2022/04/29 01:33:51;;;;;;;22.97;14.00;;;9.80;99.90;;;;;;5051159;28;20455;-76
2022/04/29 01:36:18;;;;;;;21.17;12.70;;;9.80;99.90;;;;;;5034351;28;21110;-75
2022/04/29 01:38:45;;;;;;;27.40;13.60;;;9.70;99.90;;;;;;5045887;28;20978;-75
2022/04/29 01:41:13;;;;;;;21.87;13.03;;;9.70;99.90;;;;;;5058003;28;20472;-75
2022/04/29 01:43:40;;;;;;;30.80;14.17;;;9.70;99.90;;;;;;5040203;28;20502;-76
2022/04/29 01:46:07;;;;;;;19.20;13.40;;;9.70;99.90;;;;;;5046357;28;20507;-75
2022/04/29 01:48:33;;;;;;;29.43;13.60;;;9.60;99.90;;;;;;5048302;28;20451;-75
2022/04/29 01:51:05;;;;;;;29.50;13.67;;;9.60;99.90;;;;;;5048224;28;20483;-75
2022/04/29 01:53:32;;;;;;;23.40;12.97;;;9.60;99.90;;;;;;5048143;28;20444;-75
2022/04/29 01:55:59;;;;;;;25.23;13.33;;;9.60;99.90;;;;;;5052062;28;20452;-75
2022/04/29 01:58:27;;;;;;;31.50;12.77;;;9.50;99.90;;;;;;5043204;28;20938;-75
2022/04/29 02:00:53;;;;;;;26.07;13.30;;;9.50;99.90;;;;;;5048920;28;20473;-75
2022/04/29 02:03:20;;;;;;;27.80;13.60;;;9.50;99.90;;;;;;5042171;28;20531;-75
2022/04/29 02:05:47;;;;;;;24.53;13.03;;;9.50;99.90;;;;;;5048894;28;20460;-75
2022/04/29 02:08:13;;;;;;;22.17;12.83;;;9.50;99.90;;;;;;5039174;28;20537;-75
2022/04/29 02:10:40;;;;;;;27.53;13.30;;;9.50;99.90;;;;;;5057684;28;20472;-75
2022/04/29 02:13:07;;;;;;;23.03;13.37;;;9.40;99.90;;;;;;5041375;28;20476;-75
2022/04/29 02:15:35;;;;;;;19.27;13.17;;;9.40;99.90;;;;;;5043463;28;20448;-75
2022/04/29 02:18:02;;;;;;;30.50;13.10;;;9.40;99.90;;;;;;5055587;28;20455;-75
2022/04/29 02:20:28;;;;;;;24.47;12.93;;;9.40;99.90;;;;;;5053459;28;20471;-75
2022/04/29 02:22:57;;;;;;;25.03;13.10;;;9.30;99.90;;;;;;5047599;28;20485;-75
2022/04/29 02:25:24;;;;;;;22.80;12.40;;;9.30;99.90;;;;;;5042697;28;20465;-75
2022/04/29 02:27:50;;;;;;;25.53;13.23;;;9.30;99.90;;;;;;5041767;28;20461;-75
2022/04/29 02:30:17;;;;;;;21.07;12.57;;;9.30;99.90;;;;;;5050761;28;20481;-75
2022/04/29 02:32:45;;;;;;;33.37;13.13;;;9.30;99.90;;;;;;5045416;28;20445;-75
2022/04/29 02:35:12;;;;;;;27.77;14.33;;;9.20;99.90;;;;;;5039078;28;20821;-75
2022/04/29 02:37:39;;;;;;;19.80;13.40;;;9.20;99.90;;;;;;5044738;28;20954;-77
2022/04/29 02:40:07;;;;;;;27.73;13.77;;;9.20;99.90;;;;;;5043791;28;20531;-77
2022/04/29 02:42:34;;;;;;;25.83;13.43;;;9.20;99.90;;;;;;5042241;28;20960;-77
2022/04/29 02:45:00;;;;;;;24.13;13.57;;;9.20;99.90;;;;;;5055942;28;20483;-77
2022/04/29 02:47:27;;;;;;;23.67;13.13;;;9.10;99.90;;;;;;5045809;28;20972;-77
2022/04/29 02:49:55;;;;;;;19.43;12.63;;;9.10;99.90;;;;;;5035256;28;20902;-77
2022/04/29 02:52:22;;;;;;;32.33;13.47;;;9.10;99.90;;;;;;5043932;28;20484;-76
2022/04/29 02:54:49;;;;;;;23.53;13.10;;;9.00;99.90;;;;;;5037978;28;21007;-77
2022/04/29 02:57:15;;;;;;;25.30;12.83;;;9.00;99.90;;;;;;5036223;28;20480;-77
2022/04/29 02:59:42;;;;;;;21.20;13.03;;;9.00;99.90;;;;;;5052466;28;20469;-77
2022/04/29 03:02:09;;;;;;;30.00;14.70;;;8.90;99.90;;;;;;5044653;28;20459;-77
2022/04/29 03:04:35;;;;;;;22.97;12.70;;;8.90;99.90;;;;;;5047505;28;20854;-77
2022/04/29 03:07:04;;;;;;;25.90;13.33;;;8.90;99.90;;;;;;5041185;28;20449;-77
2022/04/29 03:09:31;;;;;;;26.50;14.23;;;8.90;99.90;;;;;;5052035;28;20511;-77
2022/04/29 03:11:58;;;;;;;25.57;12.63;;;8.90;99.90;;;;;;5036878;28;20527;-77
2022/04/29 03:14:24;;;;;;;25.13;14.27;;;8.80;99.90;;;;;;5040543;28;20444;-77
2022/04/29 03:16:51;;;;;;;29.77;13.90;;;8.80;99.90;;;;;;5036840;28;20530;-77
2022/04/29 03:19:18;;;;;;;22.83;14.90;;;8.80;99.90;;;;;;5050387;28;20448;-77
2022/04/29 03:21:45;;;;;;;24.53;13.00;;;8.80;99.90;;;;;;5046355;28;20554;-77
2022/04/29 03:24:13;;;;;;;21.97;13.37;;;8.70;99.90;;;;;;5039547;28;20480;-77
2022/04/29 03:26:40;;;;;;;20.80;13.13;;;8.70;99.90;;;;;;5047659;28;20455;-77
2022/04/29 03:29:07;;;;;;;24.80;12.97;;;8.70;99.90;;;;;;5044367;28;20468;-77
2022/04/29 03:31:34;;;;;;;21.70;12.33;;;8.60;99.90;;;;;;5038515;28;20531;-77
2022/04/29 03:34:00;;;;;;;21.20;11.87;;;8.60;99.90;;;;;;5044136;28;20455;-77
2022/04/29 03:36:27;;;;;;;31.67;12.77;;;8.60;99.90;;;;;;5040986;28;20457;-77
2022/04/29 03:38:54;;;;;;;21.67;12.57;;;8.60;99.90;;;;;;5054145;28;20459;-77
2022/04/29 03:41:22;;;;;;;24.97;13.60;;;8.60;99.90;;;;;;5045586;28;20572;-77
2022/04/29 03:43:48;;;;;;;28.13;13.20;;;8.60;99.90;;;;;;5035569;28;20481;-77
2022/04/29 03:46:15;;;;;;;27.90;13.90;;;8.50;99.90;;;;;;5052399;28;20444;-77
2022/04/29 03:51:27;;;;;;;24.03;12.47;;;8.50;99.90;;;;;;5046690;28;20517;-77
2022/04/29 03:53:53;;;;;;;22.20;13.03;;;8.40;99.90;;;;;;5044960;28;20453;-77
2022/04/29 03:56:21;;;;;;;24.20;11.90;;;8.40;99.90;;;;;;5040081;28;20448;-77
2022/04/29 03:58:48;;;;;;;24.13;12.53;;;8.40;99.90;;;;;;5053319;28;20448;-77
2022/04/29 04:01:15;;;;;;;24.70;13.90;;;8.40;99.90;;;;;;5048940;28;20472;-77
2022/04/29 04:03:42;;;;;;;25.80;12.53;;;8.40;99.90;;;;;;5041416;28;20578;-77
2022/04/29 04:08:54;;;;;;;25.07;12.57;;;8.30;99.90;;;;;;5047714;28;20515;-77
2022/04/29 04:11:22;;;;;;;24.63;13.50;;;8.30;99.90;;;;;;5050118;28;20856;-77
2022/04/29 04:13:48;;;;;;;29.03;13.30;;;8.30;99.90;;;;;;5049981;28;21135;-77
2022/04/29 04:16:15;;;;;;;22.73;12.53;;;8.30;99.90;;;;;;5045103;28;20449;-77
2022/04/29 04:18:41;;;;;;;22.47;12.50;;;8.30;99.90;;;;;;5052230;28;20510;-77
2022/04/29 04:21:08;;;;;;;22.77;13.37;;;8.20;99.90;;;;;;5050403;28;20901;-77
2022/04/29 04:23:35;;;;;;;22.60;12.90;;;8.20;99.90;;;;;;5042808;28;20480;-78
2022/04/29 04:26:02;;;;;;;24.23;13.37;;;8.30;99.90;;;;;;5041032;28;20452;-77
2022/04/29 04:28:30;;;;;;;21.10;12.93;;;8.20;99.90;;;;;;5048161;28;20450;-77
2022/04/29 04:30:56;;;;;;;24.20;13.83;;;8.30;99.90;;;;;;5053294;28;20540;-77
2022/04/29 04:33:23;;;;;;;23.43;12.80;;;8.30;99.90;;;;;;5046228;28;20456;-77
2022/04/29 04:35:50;;;;;;;24.50;13.60;;;8.30;99.90;;;;;;5057781;28;20514;-77
2022/04/29 04:38:17;;;;;;;21.70;13.23;;;8.30;99.90;;;;;;5045113;28;20582;-77
2022/04/29 04:40:43;;;;;;;25.03;12.87;;;8.40;99.90;;;;;;5049522;28;20473;-77
2022/04/29 04:43:10;;;;;;;23.90;12.50;;;8.40;99.90;;;;;;5039286;28;20452;-77
2022/04/29 04:45:38;;;;;;;24.10;12.50;;;8.50;99.90;;;;;;5050962;28;20823;-77
2022/04/29 04:48:06;;;;;;;29.33;13.30;;;8.50;99.90;;;;;;5045190;28;20465;-77
2022/04/29 04:50:32;;;;;;;26.93;13.10;;;8.60;99.90;;;;;;5052345;28;20483;-77
2022/04/29 04:52:59;;;;;;;24.50;12.10;;;8.70;99.90;;;;;;5038100;28;20465;-78
2022/04/29 04:55:26;;;;;;;27.13;13.40;;;8.70;99.90;;;;;;5046605;28;20450;-77
2022/04/29 04:57:53;;;;;;;32.13;12.67;;;8.80;99.90;;;;;;5048810;28;20875;-77
2022/04/29 05:00:20;;;;;;;27.77;14.27;;;8.80;99.90;;;;;;5046156;28;20464;-77
2022/04/29 05:02:48;;;;;;;23.07;12.53;;;9.00;99.90;;;;;;5049357;28;20458;-77
2022/04/29 05:05:14;;;;;;;21.47;12.27;;;9.00;99.90;;;;;;5050331;28;20485;-77
2022/04/29 05:07:41;;;;;;;24.23;13.00;;;9.20;99.90;;;;;;5046453;28;20515;-77
2022/04/29 05:10:09;;;;;;;24.10;11.90;;;9.30;99.90;;;;;;5042509;28;20464;-77
2022/04/29 05:12:41;;;;;;;26.23;12.60;;;9.40;99.90;;;;;;5047696;28;20986;-77
2022/04/29 05:15:09;;;;;;;27.27;13.40;;;9.60;99.90;;;;;;5037932;28;21209;-77
2022/04/29 05:17:38;;;;;;;22.47;13.17;;;9.80;99.90;;;;;;5046013;28;20452;-77
2022/04/29 05:20:08;;;;;;;26.87;12.87;;;9.90;99.90;;;;;;5051290;28;20472;-77
2022/04/29 05:22:35;;;;;;;24.63;13.10;;;10.10;99.90;;;;;;5038859;28;20455;-77
2022/04/29 05:25:01;;;;;;;22.43;13.37;;;10.20;99.90;;;;;;5044740;28;20484;-77
2022/04/29 05:27:28;;;;;;;20.47;12.30;;;10.20;99.90;;;;;;5047485;28;20506;-77
2022/04/29 05:29:55;;;;;;;21.43;13.17;;;10.20;99.90;;;;;;5051871;28;20526;-77
2022/04/29 05:32:22;;;;;;;23.00;12.97;;;10.30;99.90;;;;;;5050101;28;20479;-77
2022/04/29 05:34:49;;;;;;;21.43;12.40;;;10.50;99.90;;;;;;5043885;28;20828;-77
2022/04/29 05:37:17;;;;;;;17.47;11.90;;;10.60;99.90;;;;;;5035801;28;20603;-77
2022/04/29 05:42:28;;;;;;;21.70;11.90;;;10.70;99.90;;;;;;5042853;28;20448;-77
2022/04/29 05:44:55;;;;;;;21.77;13.00;;;10.60;99.90;;;;;;5046229;28;20511;-78
2022/04/29 05:47:21;;;;;;;25.50;13.73;;;10.70;99.90;;;;;;5051278;28;21061;-76
2022/04/29 05:49:48;;;;;;;22.87;13.00;;;10.70;99.90;;;;;;5051439;28;21171;-77
2022/04/29 05:52:16;;;;;;;22.10;13.50;;;10.80;99.90;;;;;;5047579;28;20457;-77
2022/04/29 05:54:43;;;;;;;24.83;12.53;;;11.10;99.90;;;;;;5044542;28;20453;-77
2022/04/29 05:57:10;;;;;;;27.33;12.87;;;11.50;99.90;;;;;;5037410;28;20457;-77
2022/04/29 05:59:36;;;;;;;27.83;12.07;;;11.90;99.90;;;;;;5041526;28;20507;-77
2022/04/29 06:02:04;;;;;;;20.83;11.37;;;12.20;99.90;;;;;;5062774;28;20510;-79
2022/04/29 06:04:30;;;;;;;24.77;11.60;;;12.40;99.90;;;;;;5060323;28;20503;-79
2022/04/29 06:06:57;;;;;;;27.43;12.37;;;12.40;99.90;;;;;;5067971;28;20795;-79
2022/04/29 06:09:25;;;;;;;23.87;11.73;;;12.30;99.90;;;;;;5050922;28;20445;-79
2022/04/29 06:11:52;;;;;;;22.57;12.50;;;12.30;99.90;;;;;;5059029;28;20481;-80
2022/04/29 06:14:18;;;;;;;23.87;13.00;;;12.10;99.90;;;;;;5051337;28;20457;-79
2022/04/29 06:16:46;;;;;;;20.60;12.30;;;11.90;99.90;;;;;;5063966;28;20448;-79
2022/04/29 06:19:13;;;;;;;29.00;12.77;;;11.80;99.90;;;;;;5064346;28;20453;-80
2022/04/29 06:21:40;;;;;;;24.83;13.13;;;11.70;99.90;;;;;;5066713;28;20526;-79
2022/04/29 06:24:08;;;;;;;25.77;12.97;;;11.90;99.90;;;;;;5037359;28;20938;-79
2022/04/29 06:26:36;;;;;;;25.23;12.70;;;11.90;99.90;;;;;;5041685;28;20761;-80
2022/04/29 06:29:02;;;;;;;22.60;12.00;;;11.80;99.90;;;;;;5026655;28;20450;-81
2022/04/29 06:31:29;;;;;;;24.73;12.87;;;11.70;99.90;;;;;;5030715;28;20466;-79
2022/04/29 06:33:56;;;;;;;20.80;12.50;;;11.70;99.90;;;;;;5031001;28;20450;-79
2022/04/29 06:36:23;;;;;;;23.40;13.30;;;11.60;99.90;;;;;;5032784;28;20511;-79
2022/04/29 06:38:49;;;;;;;17.17;11.70;;;11.60;99.90;;;;;;5039785;28;21000;-79
2022/04/29 06:41:16;;;;;;;21.40;12.60;;;11.60;99.90;;;;;;5037278;28;20518;-80
2022/04/29 06:43:45;;;;;;;21.53;12.80;;;11.70;99.90;;;;;;5028538;28;20930;-80
2022/04/29 06:46:11;;;;;;;26.80;13.07;;;11.70;99.90;;;;;;5028705;28;20458;-80
2022/04/29 06:48:38;;;;;;;25.17;12.60;;;11.80;99.90;;;;;;5029177;28;20946;-79
2022/04/29 06:51:05;;;;;;;16.80;12.00;;;11.70;99.90;;;;;;5026343;28;20888;-80
2022/04/29 06:53:31;;;;;;;22.03;12.40;;;11.60;99.90;;;;;;5034963;28;20962;-79
2022/04/29 06:55:58;;;;;;;28.60;12.97;;;11.50;99.90;;;;;;5035867;28;21065;-79
2022/04/29 06:58:25;;;;;;;22.93;13.17;;;11.50;99.90;;;;;;5030391;28;20454;-80
2022/04/29 07:00:53;;;;;;;21.43;13.40;;;11.50;99.90;;;;;;5026148;28;20561;-81
2022/04/29 07:03:20;;;;;;;25.37;14.40;;;11.40;99.90;;;;;;5023245;28;20520;-79
2022/04/29 07:05:46;;;;;;;28.20;12.73;;;11.40;99.90;;;;;;5027659;28;20486;-81
2022/04/29 07:08:14;;;;;;;25.37;12.10;;;11.40;99.90;;;;;;5024718;28;20753;-80
2022/04/29 07:10:41;;;;;;;26.20;12.70;;;11.40;99.90;;;;;;5034736;28;20484;-80
2022/04/29 07:13:09;;;;;;;21.77;12.13;;;11.30;99.90;;;;;;5028779;28;20553;-81
2022/04/29 07:15:37;;;;;;;22.83;12.20;;;11.40;99.90;;;;;;5023851;28;20702;-79
2022/04/29 07:18:05;;;;;;;22.87;12.57;;;11.40;99.90;;;;;;5034690;28;20832;-77
2022/04/29 07:20:32;;;;;;;20.23;12.20;;;11.40;99.90;;;;;;5023243;28;20474;-78
2022/04/29 07:22:58;;;;;;;22.47;13.17;;;11.50;99.90;;;;;;5014633;28;20504;-75
2022/04/29 07:25:25;;;;;;;23.67;12.23;;;11.50;99.90;;;;;;5024718;28;20550;-75
2022/04/29 07:27:52;;;;;;;17.07;12.03;;;11.70;99.90;;;;;;5021467;28;20454;-75
2022/04/29 07:30:18;;;;;;;18.60;12.90;;;11.90;99.90;;;;;;5024850;28;20525;-75
2022/04/29 07:32:45;;;;;;;17.93;12.53;;;12.30;99.90;;;;;;5027759;28;20859;-76
2022/04/29 07:43:27;;;;;;;18.43;12.20;;;13.30;99.90;;;;;;5028803;28;20981;-75
2022/04/29 07:45:54;;;;;;;20.47;11.63;;;14.00;99.90;;;;;;5016431;28;21020;-76
2022/04/29 07:48:22;;;;;;;17.53;12.13;;;14.60;99.90;;;;;;5014013;28;20455;-76
2022/04/29 07:50:51;;;;;;;19.63;12.70;;;15.30;99.90;;;;;;5024703;28;20479;-76
2022/04/29 07:53:18;;;;;;;24.10;12.33;;;15.70;99.90;;;;;;5026881;28;20461;-76
2022/04/29 07:55:45;;;;;;;17.97;11.47;;;16.20;99.90;;;;;;5021840;28;20441;-76
2022/04/29 07:58:12;;;;;;;23.13;12.60;;;16.50;99.90;;;;;;5021243;28;20458;-78
2022/04/29 08:00:39;;;;;;;23.17;12.77;;;16.90;99.90;;;;;;5018767;28;20480;-77
2022/04/29 08:03:06;;;;;;;16.27;9.30;;;17.20;99.90;;;;;;5020348;28;20462;-77
2022/04/29 08:05:33;;;;;;;19.90;11.40;;;17.40;99.90;;;;;;5023709;28;20493;-77
2022/04/29 08:08:01;;;;;;;17.83;11.50;;;17.70;99.90;;;;;;5024145;28;20420;-77
2022/04/29 08:10:29;;;;;;;21.60;11.73;;;17.90;99.90;;;;;;5021818;28;20528;-77
2022/04/29 08:12:57;;;;;;;19.23;12.00;;;18.00;99.90;;;;;;5027263;28;20471;-77
2022/04/29 08:15:24;;;;;;;16.27;11.00;;;17.90;99.90;;;;;;5026138;28;20439;-76
2022/04/29 08:17:51;;;;;;;20.57;11.60;;;17.80;99.90;;;;;;5021975;28;20481;-75
2022/04/29 08:20:17;;;;;;;17.50;12.77;;;17.70;99.90;;;;;;5019288;28;20834;-75
2022/04/29 08:22:44;;;;;;;18.93;11.70;;;17.50;99.90;;;;;;5021437;28;21606;-76
2022/04/29 08:25:12;;;;;;;19.67;12.50;;;17.60;99.90;;;;;;5032083;28;20458;-75
2022/04/29 08:27:39;;;;;;;19.73;11.77;;;17.60;99.90;;;;;;5026193;28;20769;-76
2022/04/29 08:30:07;;;;;;;18.80;11.47;;;17.70;99.90;;;;;;5027106;28;20469;-75
2022/04/29 08:32:39;;;;;;;18.60;10.93;;;17.70;99.90;;;;;;5028532;28;20486;-76
2022/04/29 08:35:09;;;;;;;17.37;11.37;;;17.60;99.90;;;;;;5043881;28;20429;-77
2022/04/29 08:37:36;;;;;;;19.13;12.03;;;17.60;99.90;;;;;;5041058;28;20461;-76
2022/04/29 08:40:02;;;;;;;19.47;12.67;;;17.30;99.90;;;;;;5045978;28;20454;-76
2022/04/29 08:42:36;;;;;;;16.97;12.23;;;17.10;99.90;;;;;;5052921;28;20631;-77
2022/04/29 08:45:06;;;;;;;19.93;12.57;;;17.10;99.90;;;;;;5044277;28;20483;-76
2022/04/29 08:47:35;;;;;;;17.20;12.10;;;17.10;99.90;;;;;;5032072;28;20427;-77
2022/04/29 08:50:02;;;;;;;16.43;13.07;;;17.30;99.90;;;;;;5045489;28;20984;-76
2022/04/29 08:52:29;;;;;;;18.70;12.47;;;17.50;99.90;;;;;;5046337;28;20452;-76
2022/04/29 09:00:26;;;;;;;22.97;11.90;;;17.80;99.90;;;;;;5044577;28;20513;-77
2022/04/29 09:02:52;;;;;;;16.20;10.37;;;17.80;99.90;;;;;;5031664;28;20432;-76
2022/04/29 09:05:19;;;;;;;28.33;14.00;;;18.10;99.90;;;;;;5038647;28;20503;-76
2022/04/29 09:07:54;;;;;;;18.77;12.63;;;18.10;99.90;;;;;;5044589;28;20481;-77
2022/04/29 09:10:21;;;;;;;16.10;12.67;;;18.10;99.90;;;;;;5047822;28;21026;-75
2022/04/29 09:12:49;;;;;;;20.23;11.67;;;18.00;99.90;;;;;;5046278;28;20485;-75
2022/04/29 09:15:17;;;;;;;17.83;11.73;;;18.00;99.90;;;;;;5021198;28;20425;-75
2022/04/29 09:17:45;;;;;;;23.83;12.80;;;18.00;99.90;;;;;;5038061;28;20428;-75
2022/04/29 09:20:16;;;;;;;16.23;11.37;;;17.90;99.90;;;;;;5017364;28;20451;-75
2022/04/29 09:22:47;;;;;;;19.90;14.17;;;18.10;99.90;;;;;;5031044;28;20432;-75
2022/04/29 09:25:14;;;;;;;18.63;14.47;;;18.30;99.90;;;;;;5026954;28;20558;-75
2022/04/29 09:27:58;;;;;;;21.83;13.70;;;18.40;99.90;;;;;;5026852;28;20508;-75
2022/04/29 09:30:37;;;;;;;23.50;11.57;;;18.40;99.90;;;;;;5022551;28;20476;-75
2022/04/29 09:33:04;;;;;;;17.53;12.47;;;18.50;99.90;;;;;;5023933;28;20424;-75
2022/04/29 09:35:39;;;;;;;17.60;11.70;;;18.50;99.90;;;;;;5030410;28;20434;-75
2022/04/29 09:40:51;;;;;;;17.00;12.83;;;19.00;99.90;;;;;;5033180;28;20435;-75
2022/04/29 09:43:31;;;;;;;17.30;11.50;;;19.20;99.90;;;;;;5027166;28;20503;-75
2022/04/29 09:46:13;;;;;;;14.60;10.40;;;19.30;99.90;;;;;;5023903;28;20485;-75
2022/04/29 09:49:00;;;;;;;17.93;13.67;;;19.40;99.90;;;;;;5026103;28;20422;-75
2022/04/29 09:51:41;;;;;;;21.07;12.67;;;19.30;99.90;;;;;;5027174;28;20477;-75
2022/04/29 09:54:09;;;;;;;20.83;12.13;;;19.30;99.90;;;;;;5028085;28;20453;-74
2022/04/29 09:56:36;;;;;;;14.03;11.67;;;19.20;99.90;;;;;;5024805;28;20460;-74
2022/04/29 09:59:04;;;;;;;19.10;12.77;;;19.10;99.90;;;;;;5020144;28;21010;-74
2022/04/29 10:01:30;;;;;;;23.03;12.10;;;19.20;99.90;;;;;;5026966;28;20897;-74
2022/04/29 10:03:58;;;;;;;15.60;12.03;;;19.20;99.90;;;;;;5031252;28;20448;-75
2022/04/29 10:06:26;;;;;;;15.67;11.00;;;19.50;99.90;;;;;;5032862;28;20468;-74
2022/04/29 10:08:53;;;;;;;21.70;12.13;;;19.80;99.90;;;;;;5038488;28;20453;-74
2022/04/29 10:11:22;;;;;;;21.40;12.53;;;19.90;99.90;;;;;;5030673;28;20480;-74
2022/04/29 10:13:50;;;;;;;23.27;13.33;;;20.00;99.90;;;;;;5044332;28;20467;-73
2022/04/29 10:16:20;;;;;;;17.83;12.80;;;20.30;99.90;;;;;;5026853;28;20946;-75
2022/04/29 10:21:37;;;;;;;20.93;13.80;;;20.80;99.90;;;;;;5028015;28;20464;-75
2022/04/29 10:24:04;;;;;;;14.77;11.27;;;20.90;99.90;;;;;;5021955;28;20460;-75
2022/04/29 10:26:31;;;;;;;18.43;12.53;;;20.90;99.90;;;;;;5032243;28;20477;-75
2022/04/29 10:28:58;;;;;;;19.70;12.00;;;21.00;99.90;;;;;;5031811;28;20457;-74
2022/04/29 10:31:28;;;;;;;19.50;12.13;;;21.20;99.90;;;;;;5032758;28;20485;-75
2022/04/29 10:33:55;;;;;;;15.53;12.87;;;21.40;99.90;;;;;;5016323;28;20451;-74
2022/04/29 10:36:24;;;;;;;17.73;10.50;;;21.50;99.90;;;;;;5026362;28;20506;-74
2022/04/29 10:39:01;;;;;;;19.57;12.60;;;21.60;99.90;;;;;;5029520;28;20462;-76
2022/04/29 10:41:27;;;;;;;27.43;13.70;;;21.60;99.90;;;;;;5027466;28;20477;-76
2022/04/29 10:44:05;;;;;;;21.97;12.50;;;21.30;99.90;;;;;;5044483;28;20452;-76
2022/04/29 10:46:35;;;;;;;18.87;12.23;;;21.20;99.90;;;;;;5045997;28;20488;-76
2022/04/29 10:49:21;;;;;;;23.90;11.50;;;21.00;99.90;;;;;;5029684;28;20460;-77
2022/04/29 10:51:49;;;;;;;20.90;13.40;;;21.00;99.90;;;;;;5013316;28;20816;-76
2022/04/29 10:54:16;;;;;;;16.80;13.40;;;21.00;99.90;;;;;;5030094;28;20904;-77
2022/04/29 10:56:43;;;;;;;20.90;13.27;;;21.20;99.90;;;;;;5037230;28;20956;-76
2022/04/29 10:59:15;;;;;;;15.23;12.60;;;20.90;99.90;;;;;;5045501;28;21037;-76
2022/04/29 11:01:49;;;;;;;15.27;11.17;;;20.80;99.90;;;;;;5028919;28;20479;-76
2022/04/29 11:04:45;;;;;;;18.80;11.83;;;20.80;99.90;;;;;;5038123;28;20452;-76
2022/04/29 11:07:48;;;;;;;15.30;11.30;;;20.90;99.90;;;;;;5030230;28;20488;-77
2022/04/29 11:10:17;;;;;;;21.67;11.83;;;20.90;99.90;;;;;;5027066;28;20473;-75
2022/04/29 11:12:56;;;;;;;21.00;13.10;;;20.80;99.90;;;;;;5029351;28;20870;-76
2022/04/29 11:15:26;;;;;;;16.37;12.27;;;20.70;99.90;;;;;;5035609;28;20531;-76
2022/04/29 11:18:14;;;;;;;16.23;11.70;;;20.60;99.90;;;;;;5033182;28;20457;-75
2022/04/29 11:20:43;;;;;;;21.00;12.07;;;20.50;99.90;;;;;;5035963;28;20476;-76
2022/04/29 11:25:57;;;;;;;24.60;12.07;;;20.00;99.90;;;;;;5047392;28;20487;-76
2022/04/29 11:28:25;;;;;;;16.50;9.47;;;20.20;99.90;;;;;;5030970;28;20453;-76
2022/04/29 11:31:00;;;;;;;19.40;12.03;;;20.20;99.90;;;;;;5049561;28;20538;-76
2022/04/29 11:33:28;;;;;;;17.73;11.60;;;20.20;99.90;;;;;;5037996;28;20448;-76
2022/04/29 11:36:02;;;;;;;16.90;11.77;;;20.30;99.90;;;;;;5032172;28;21126;-75
2022/04/29 11:38:30;;;;;;;19.90;12.00;;;20.20;99.90;;;;;;5029659;28;20453;-75
2022/04/29 11:40:57;;;;;;;14.47;12.10;;;20.30;99.90;;;;;;5030921;28;20531;-75
2022/04/29 11:43:24;;;;;;;19.97;11.70;;;20.30;99.90;;;;;;5031256;28;20503;-75
2022/04/29 11:46:05;;;;;;;16.67;10.20;;;20.40;99.90;;;;;;5033435;28;20485;-75
2022/04/29 11:48:34;;;;;;;13.47;11.00;;;20.40;99.90;;;;;;5029570;28;20457;-76
2022/04/29 11:51:02;;;;;;;15.00;11.20;;;20.50;99.90;;;;;;5029472;28;20509;-75
2022/04/29 11:53:29;;;;;;;19.67;11.90;;;20.50;99.90;;;;;;5030895;28;20507;-75
2022/04/29 11:55:56;;;;;;;16.27;10.80;;;20.70;99.90;;;;;;5033938;28;20489;-75
2022/04/29 11:58:22;;;;;;;37.17;19.27;;;20.80;99.90;;;;;;5039381;28;20452;-76
2022/04/29 12:00:50;;;;;;;61.57;31.53;;;21.00;99.90;;;;;;5040418;28;20469;-76
2022/04/29 12:03:20;;;;;;;72.13;29.07;;;21.00;99.90;;;;;;5037481;28;20465;-77
2022/04/29 12:05:48;;;;;;;14.30;11.70;;;21.00;99.90;;;;;;5050481;28;20510;-76
2022/04/29 12:08:16;;;;;;;22.83;14.37;;;21.00;99.90;;;;;;5048761;28;20505;-76
2022/04/29 12:10:45;;;;;;;17.77;12.80;;;20.80;99.90;;;;;;5034433;28;20485;-75
2022/04/29 12:13:12;;;;;;;16.63;11.93;;;20.70;99.90;;;;;;5032759;28;20961;-76
2022/04/29 12:15:42;;;;;;;19.57;11.13;;;20.80;99.90;;;;;;5021964;28;20511;-76
2022/04/29 12:18:11;;;;;;;15.57;11.53;;;21.00;99.90;;;;;;5033510;28;21251;-76
2022/04/29 12:20:39;;;;;;;21.00;10.77;;;21.00;99.90;;;;;;5041915;28;20476;-75
2022/04/29 12:23:11;;;;;;;20.23;13.27;;;21.00;99.90;;;;;;5039459;28;20456;-75
2022/04/29 12:25:42;;;;;;;19.53;11.67;;;21.00;99.90;;;;;;5033852;28;20445;-76
2022/04/29 12:28:11;;;;;;;18.57;11.50;;;21.10;99.90;;;;;;5041960;28;20459;-75
2022/04/29 12:36:09;;;;;;;16.37;10.70;;;22.10;99.90;;;;;;5053075;28;20432;-75
2022/04/29 12:38:38;;;;;;;18.67;10.43;;;22.70;99.90;;;;;;5032787;28;20985;-75
2022/04/29 12:41:15;;;;;;;15.50;10.30;;;22.50;99.90;;;;;;5047873;28;20476;-75
2022/04/29 12:43:42;;;;;;;16.33;9.83;;;22.70;99.90;;;;;;5034897;28;20477;-75
2022/04/29 12:46:16;;;;;;;17.03;9.40;;;22.70;99.90;;;;;;5052237;28;20530;-75
2022/04/29 12:48:50;;;;;;;11.70;7.93;;;22.70;99.90;;;;;;5041919;28;20464;-75
2022/04/29 12:51:24;;;;;;;10.90;7.00;;;23.00;99.90;;;;;;5030743;28;20513;-75
2022/04/29 12:53:52;;;;;;;14.40;7.87;;;23.10;99.90;;;;;;5035886;28;20477;-75
2022/04/29 12:56:26;;;;;;;14.30;8.90;;;23.10;99.90;;;;;;5030681;28;20457;-75
2022/04/29 12:58:53;;;;;;;10.25;7.20;;;23.40;99.90;;;;;;5036913;28;20809;-76
2022/04/29 13:01:20;;;;;;;11.47;7.23;;;23.30;99.90;;;;;;5038530;28;20223;-78
2022/04/29 13:03:51;;;;;;;10.17;6.77;;;23.40;99.90;;;;;;5048775;28;20460;-77
2022/04/29 13:06:21;;;;;;;10.50;6.63;;;23.60;99.90;;;;;;5053751;28;20533;-78
2022/04/29 13:08:53;;;;;;;8.33;6.50;;;23.80;99.90;;;;;;5049610;28;20445;-79
2022/04/29 13:11:20;;;;;;;8.40;6.83;;;23.70;98.10;;;;;;5053041;28;20531;-79